Time;durP1;ratioP1;P1;durP2;ratioP2;P2;SDS_P1;SDS_P2;PMS_P1;PMS_P2;Temp;Humidity;BMP_temperature;BMP_pressure;BME280_temperature;BME280_humidity;BME280_pressure;Samples;Min_cycle;Max_cycle;Signal;HPM_P1;HPM_P2
2023/06/03 00:00:52;;;;;;;11.05;5.10;;;;;;;15.41;66.51;96367.56;5004404;28;20065;-66
2023/06/03 00:03:18;;;;;;;9.27;4.80;;;;;;;15.36;66.63;96363.28;5000607;28;20386;-66
2023/06/03 00:05:44;;;;;;;12.95;5.20;;;;;;;15.26;67.15;96359.41;5006442;28;20049;-65
2023/06/03 00:08:09;;;;;;;10.50;4.65;;;;;;;15.31;67.14;96360.19;4998791;28;20049;-66
2023/06/03 00:10:35;;;;;;;17.02;5.03;;;;;;;15.24;67.59;96369.28;5002739;28;20446;-67
2023/06/03 00:13:00;;;;;;;8.98;4.80;;;;;;;15.24;67.43;96361.00;5002571;28;20037;-67
2023/06/03 00:15:26;;;;;;;8.60;5.00;;;;;;;15.17;68.31;96367.34;4998619;28;20133;-66
2023/06/03 00:17:51;;;;;;;10.52;4.90;;;;;;;15.10;68.81;96356.38;5001148;28;20073;-67
2023/06/03 00:20:17;;;;;;;13.13;5.13;;;;;;;15.03;69.23;96361.94;4997573;28;20132;-67
2023/06/03 00:22:42;;;;;;;13.43;5.15;;;;;;;15.03;68.96;96370.97;5004276;28;20079;-66
2023/06/03 00:25:08;;;;;;;12.48;5.20;;;;;;;14.93;70.04;96362.78;4998045;28;20049;-65
2023/06/03 00:27:35;;;;;;;13.60;5.20;;;;;;;14.85;70.42;96362.81;5004067;28;20037;-66
2023/06/03 00:30:05;;;;;;;11.45;5.28;;;;;;;14.84;70.69;96366.00;5005180;28;20068;-66
2023/06/03 00:32:31;;;;;;;10.55;5.18;;;;;;;14.83;70.69;96362.44;5011815;28;20068;-66
2023/06/03 00:34:56;;;;;;;15.07;5.20;;;;;;;14.82;71.15;96365.59;5015722;28;20038;-66
2023/06/03 00:37:22;;;;;;;12.65;5.70;;;;;;;14.80;70.82;96366.03;5007540;28;20609;-67
2023/06/03 00:39:47;;;;;;;12.57;5.47;;;;;;;14.82;71.10;96363.66;5005709;28;20573;-65
2023/06/03 00:42:13;;;;;;;11.38;5.07;;;;;;;14.79;71.65;96369.97;4999360;28;20103;-67
2023/06/03 00:44:38;;;;;;;9.10;4.78;;;;;;;14.76;71.41;96370.75;5005212;28;20156;-65
2023/06/03 00:47:04;;;;;;;9.77;4.93;;;;;;;14.74;72.00;96356.59;5005820;28;20042;-65
2023/06/03 00:49:30;;;;;;;11.65;5.32;;;;;;;14.65;72.04;96361.75;5016781;28;20177;-66
2023/06/03 00:51:56;;;;;;;11.20;5.22;;;;;;;14.59;72.69;96366.91;5016222;28;20059;-67
2023/06/03 00:54:22;;;;;;;11.63;5.03;;;;;;;14.52;73.67;96372.44;5007248;28;20124;-66
2023/06/03 00:56:47;;;;;;;12.75;5.90;;;;;;;14.54;73.18;96353.53;5010724;28;20056;-66
2023/06/03 00:59:15;;;;;;;14.88;5.10;;;;;;;14.52;73.67;96381.47;5006878;28;20037;-66
2023/06/03 01:01:42;;;;;;;18.08;6.32;;;;;;;14.52;73.34;96386.22;5006856;28;20038;-67
2023/06/03 01:04:09;;;;;;;10.43;5.13;;;;;;;14.44;74.40;96373.63;4999052;28;20068;-66
2023/06/03 01:06:45;;;;;;;15.07;5.38;;;;;;;14.43;74.52;96370.09;5005128;28;20054;-66
2023/06/03 01:09:49;;;;;;;10.38;5.47;;;;;;;14.37;74.94;96363.44;4993954;28;20152;-67
2023/06/03 01:12:33;;;;;;;13.30;5.57;;;;;;;14.31;75.54;96379.59;4998108;28;20129;-66
2023/06/03 01:15:07;;;;;;;11.77;5.93;;;;;;;14.32;75.86;96370.13;5004259;28;20046;-65
2023/06/03 01:17:39;;;;;;;11.30;5.28;;;;;;;14.31;76.13;96382.38;5002592;28;20042;-66
2023/06/03 01:20:10;;;;;;;16.40;6.05;;;;;;;14.25;76.50;96383.94;4998413;28;20046;-66
2023/06/03 01:22:42;;;;;;;12.75;5.50;;;;;;;14.33;75.76;96379.19;5003103;28;20046;-67
2023/06/03 01:25:09;;;;;;;13.63;5.95;;;;;;;14.26;76.07;96371.75;4998939;28;20615;-65
2023/06/03 01:27:38;;;;;;;10.88;5.50;;;;;;;14.21;77.14;96388.69;5003438;28;20148;-64
2023/06/03 01:30:06;;;;;;;12.07;5.57;;;;;;;14.21;77.19;96391.44;5000282;28;20069;-65
2023/06/03 01:32:32;;;;;;;12.68;5.47;;;;;;;14.17;77.34;96396.19;5002887;28;20038;-65
2023/06/03 01:34:58;;;;;;;14.07;6.13;;;;;;;14.05;78.55;96393.84;5001609;28;20120;-67
2023/06/03 01:37:26;;;;;;;23.00;6.32;;;;;;;14.10;78.32;96399.72;4980097;28;20041;-66
2023/06/03 01:39:52;;;;;;;17.70;5.82;;;;;;;14.03;78.66;96398.97;5003595;28;20067;-66
2023/06/03 01:42:18;;;;;;;18.50;5.95;;;;;;;14.05;78.58;96397.38;4997432;28;20495;-65
2023/06/03 01:44:44;;;;;;;10.32;6.00;;;;;;;14.04;79.30;96404.06;5001068;28;20100;-66
2023/06/03 01:47:10;;;;;;;18.58;6.53;;;;;;;13.93;79.90;96409.56;4996753;28;20132;-67
2023/06/03 01:49:36;;;;;;;14.88;5.93;;;;;;;13.95;80.09;96403.69;5002556;28;20109;-65
2023/06/03 01:52:02;;;;;;;13.43;6.15;;;;;;;13.90;80.25;96410.38;5002371;28;20661;-67
2023/06/03 01:54:28;;;;;;;16.73;6.43;;;;;;;13.80;81.45;96402.13;4997718;28;20240;-65
2023/06/03 01:56:55;;;;;;;14.00;5.93;;;;;;;13.87;80.72;96404.88;5002395;28;20499;-65
2023/06/03 01:59:23;;;;;;;14.60;6.10;;;;;;;13.79;81.41;96398.59;4998755;28;20122;-66
2023/06/03 02:01:56;;;;;;;10.07;5.45;;;;;;;13.73;82.48;96402.94;4985184;28;20510;-66
2023/06/03 02:04:23;;;;;;;14.57;6.13;;;;;;;13.69;83.03;96391.91;4996997;28;20049;-64
2023/06/03 02:06:52;;;;;;;17.67;7.28;;;;;;;13.74;82.92;96397.03;5001915;28;20046;-66
2023/06/03 02:09:20;;;;;;;12.63;6.80;;;;;;;13.65;83.51;96391.16;4997450;28;20050;-65
2023/06/03 02:11:47;;;;;;;15.02;5.95;;;;;;;13.68;83.78;96395.84;5000453;28;20038;-66
2023/06/03 02:14:12;;;;;;;13.02;6.50;;;;;;;13.64;84.14;96397.81;4995379;28;20038;-65
2023/06/03 02:16:40;;;;;;;18.20;6.60;;;;;;;13.60;84.07;96399.00;5002872;28;20119;-65
2023/06/03 02:19:15;;;;;;;15.73;6.60;;;;;;;13.62;84.01;96400.19;4998567;28;20437;-65
2023/06/03 02:21:42;;;;;;;15.55;6.45;;;;;;;13.47;85.62;96399.41;5001289;28;20069;-66
2023/06/03 02:24:08;;;;;;;15.07;6.82;;;;;;;13.56;85.04;96393.50;4995308;28;20042;-65
2023/06/03 02:26:34;;;;;;;13.57;5.70;;;;;;;13.58;85.25;96394.69;5002718;28;20045;-64
2023/06/03 02:29:00;;;;;;;13.10;6.65;;;;;;;13.59;84.93;96387.19;5000541;28;20189;-66
2023/06/03 02:31:25;;;;;;;17.40;6.90;;;;;;;13.58;84.90;96389.16;4998255;28;20170;-65
2023/06/03 02:33:51;;;;;;;16.63;7.22;;;;;;;13.53;85.27;96388.78;5000116;28;20101;-66
2023/06/03 02:36:18;;;;;;;15.77;7.22;;;;;;;13.48;86.18;96389.94;4997534;28;20503;-65
2023/06/03 02:38:44;;;;;;;15.52;7.03;;;;;;;13.48;85.74;96391.94;5000081;28;20049;-66
2023/06/03 02:41:10;;;;;;;14.20;7.00;;;;;;;13.43;86.66;96401.34;4996265;28;20091;-67
2023/06/03 02:43:35;;;;;;;10.75;6.40;;;;;;;13.44;86.51;96396.66;5004074;28;20092;-65
2023/06/03 02:46:01;;;;;;;13.98;8.18;;;;;;;13.48;86.14;96397.44;5000696;28;20072;-66
2023/06/03 02:48:27;;;;;;;11.13;6.05;;;;;;;13.53;85.65;96388.78;4997555;28;20045;-65
2023/06/03 02:50:52;;;;;;;13.55;7.13;;;;;;;13.44;86.84;96407.66;5000855;28;20034;-66
2023/06/03 02:53:18;;;;;;;13.38;6.95;;;;;;;13.56;86.15;96410.78;4996062;28;20113;-66
2023/06/03 02:55:44;;;;;;;14.63;7.63;;;;;;;13.54;86.04;96404.09;5002101;28;20518;-71
2023/06/03 02:58:12;;;;;;;11.65;6.97;;;;;;;13.48;86.18;96416.69;4996605;28;20058;-66
2023/06/03 03:00:39;;;;;;;14.38;7.72;;;;;;;13.45;87.16;96422.97;5004455;28;20045;-65
2023/06/03 03:03:05;;;;;;;12.07;6.90;;;;;;;13.54;86.65;96420.59;4984068;28;20046;-66
2023/06/03 03:05:30;;;;;;;11.60;6.32;;;;;;;13.56;85.99;96419.06;5005616;28;20482;-67
2023/06/03 03:07:58;;;;;;;15.77;6.80;;;;;;;13.56;86.17;96430.06;5005752;28;20071;-65
2023/06/03 03:10:25;;;;;;;14.70;6.85;;;;;;;13.48;86.42;96428.47;5002418;28;20105;-65
2023/06/03 03:12:50;;;;;;;19.40;7.53;;;;;;;13.34;87.23;96429.25;5005278;28;20127;-65
2023/06/03 03:15:16;;;;;;;11.98;7.32;;;;;;;13.39;87.44;96431.59;5000001;28;20415;-66
2023/06/03 03:17:41;;;;;;;11.80;6.78;;;;;;;13.37;87.16;96439.47;5005152;28;20046;-66
2023/06/03 03:20:07;;;;;;;19.45;7.80;;;;;;;13.27;87.92;96442.97;5000658;28;20474;-66
2023/06/03 03:22:33;;;;;;;19.35;7.60;;;;;;;13.29;88.20;96434.31;5005291;28;20387;-67
2023/06/03 03:24:59;;;;;;;15.45;7.35;;;;;;;13.19;89.02;96439.41;5007622;28;20053;-66
2023/06/03 03:27:25;;;;;;;13.93;6.80;;;;;;;13.09;89.43;96436.63;5011260;28;20136;-66
2023/06/03 03:29:54;;;;;;;15.23;7.68;;;;;;;13.14;89.20;96434.31;5016255;28;20126;-66
2023/06/03 03:32:20;;;;;;;10.85;6.97;;;;;;;13.16;89.26;96445.72;5003647;28;20041;-63
2023/06/03 03:34:54;;;;;;;13.85;7.30;;;;;;;13.04;89.98;96451.56;5003237;28;20122;-66
2023/06/03 03:37:20;;;;;;;17.85;7.68;;;;;;;12.91;91.17;96462.13;4999563;28;20064;-67
2023/06/03 03:39:45;;;;;;;15.68;7.22;;;;;;;12.89;91.21;96460.94;5002538;28;20499;-65
2023/06/03 03:42:11;;;;;;;13.30;7.57;;;;;;;12.94;91.68;96461.34;5000489;28;20049;-66
2023/06/03 03:44:37;;;;;;;12.10;6.90;;;;;;;13.00;91.11;96454.31;5005412;28;20162;-66
2023/06/03 03:47:02;;;;;;;11.73;7.13;;;;;;;13.14;89.90;96464.56;5001980;28;20049;-68
2023/06/03 03:49:31;;;;;;;12.25;7.90;;;;;;;12.90;91.18;96457.81;5003490;28;20049;-66
2023/06/03 03:52:03;;;;;;;14.03;7.53;;;;;;;12.72;92.93;96457.72;5005254;28;20128;-66
2023/06/03 03:54:29;;;;;;;14.68;8.10;;;;;;;12.68;93.57;96456.16;5002892;28;20791;-66
2023/06/03 03:56:57;;;;;;;16.42;7.82;;;;;;;12.70;93.61;96462.06;5004121;28;20050;-67
2023/06/03 03:59:26;;;;;;;23.52;8.80;;;;;;;12.68;93.86;96467.94;5000630;28;20171;-67
2023/06/03 04:01:52;;;;;;;18.40;8.27;;;;;;;12.78;93.31;96463.63;5002421;28;20042;-66
2023/06/03 04:04:45;;;;;;;14.93;7.57;;;;;;;13.00;92.08;96464.53;5000639;28;20048;-64
2023/06/03 04:07:16;;;;;;;14.25;7.55;;;;;;;13.39;90.17;96464.63;5000311;28;20257;-66
2023/06/03 04:09:42;;;;;;;17.38;7.20;;;;;;;13.60;88.21;96460.31;5002269;28;20038;-67
2023/06/03 04:12:27;;;;;;;13.52;7.50;;;;;;;13.19;89.35;96463.38;5000418;28;20125;-66
2023/06/03 04:14:53;;;;;;;21.42;8.70;;;;;;;13.16;90.05;96464.16;5004123;28;20411;-66
2023/06/03 04:17:21;;;;;;;14.23;8.23;;;;;;;13.59;88.23;96467.00;4999162;28;20041;-65
2023/06/03 04:19:48;;;;;;;17.52;8.25;;;;;;;13.41;88.79;96455.97;5003978;28;20530;-66
2023/06/03 04:22:19;;;;;;;16.83;7.00;;;;;;;13.73;87.27;96463.47;4998727;28;20081;-66
2023/06/03 04:24:44;;;;;;;15.88;8.35;;;;;;;13.46;88.86;96457.56;5002474;28;20042;-67
2023/06/03 04:27:10;;;;;;;15.07;7.78;;;;;;;13.33;89.75;96462.66;4997472;28;20044;-65
2023/06/03 04:29:35;;;;;;;12.80;7.93;;;;;;;13.30;89.97;96455.94;5004586;28;20081;-66
2023/06/03 04:32:01;;;;;;;16.42;8.45;;;;;;;13.35;89.85;96455.56;5003405;28;20038;-66
2023/06/03 04:34:28;;;;;;;15.23;8.15;;;;;;;13.61;89.27;96461.88;5013501;28;20042;-66
2023/06/03 04:36:54;;;;;;;23.35;8.65;;;;;;;13.58;88.73;96455.22;5003895;28;20069;-67
2023/06/03 04:39:19;;;;;;;15.52;7.30;;;;;;;14.11;85.80;96456.34;4998319;28;20081;-66
2023/06/03 04:41:44;;;;;;;17.88;8.43;;;;;;;13.79;86.96;96453.63;5018392;28;20046;-66
2023/06/03 04:44:11;;;;;;;15.48;8.02;;;;;;;13.95;86.42;96470.56;4996276;28;20115;-66
2023/06/03 04:46:37;;;;;;;14.02;7.38;;;;;;;14.18;85.92;96455.56;5003155;28;20100;-66
2023/06/03 04:49:03;;;;;;;20.52;8.35;;;;;;;14.36;84.44;96454.75;5002270;28;20049;-66
2023/06/03 04:51:34;;;;;;;15.50;7.18;;;;;;;14.67;81.57;96461.38;5002859;28;20137;-67
2023/06/03 04:54:01;;;;;;;17.55;8.27;;;;;;;14.65;80.62;96461.00;5003578;28;20379;-68
2023/06/03 04:56:29;;;;;;;15.40;7.18;;;;;;;15.39;77.36;96464.56;5000446;28;20054;-68
2023/06/03 04:59:06;;;;;;;12.32;6.90;;;;;;;16.19;73.83;96457.25;5017611;28;20398;-66
2023/06/03 05:01:32;;;;;;;16.15;6.95;;;;;;;15.61;75.07;96456.13;5007298;28;20502;-68
2023/06/03 05:03:57;;;;;;;13.05;6.35;;;;;;;16.61;69.96;96459.97;5004521;28;20075;-67
2023/06/03 05:06:23;;;;;;;10.90;6.18;;;;;;;16.33;70.70;96453.56;4992132;28;20722;-68
2023/06/03 05:08:50;;;;;;;15.25;6.38;;;;;;;16.87;67.58;96460.50;5001902;28;20041;-68
2023/06/03 05:11:17;;;;;;;17.17;7.45;;;;;;;16.17;70.98;96464.38;4993681;28;20046;-67
2023/06/03 05:13:43;;;;;;;11.48;6.95;;;;;;;16.22;70.49;96461.16;5000935;28;20116;-67
2023/06/03 05:16:09;;;;;;;15.40;7.00;;;;;;;15.33;75.36;96468.94;4997433;28;20050;-67
2023/06/03 05:18:35;;;;;;;17.92;7.75;;;;;;;15.57;74.70;96463.66;4986784;28;20379;-69
2023/06/03 05:21:02;;;;;;;13.13;7.60;;;;;;;15.32;75.55;96467.34;4993960;28;20030;-67
2023/06/03 05:23:28;;;;;;;13.90;7.53;;;;;;;15.63;74.58;96471.13;4998559;28;20054;-67
2023/06/03 05:25:53;;;;;;;15.43;6.47;;;;;;;16.62;70.30;96470.63;5000348;28;20192;-67
2023/06/03 05:28:19;;;;;;;15.48;7.05;;;;;;;17.19;64.97;96474.69;4993983;28;20371;-67
2023/06/03 05:30:44;;;;;;;16.63;6.75;;;;;;;19.61;56.89;96466.44;5002727;28;20049;-67
2023/06/03 05:33:23;;;;;;;11.75;6.18;;;;;;;18.40;58.53;96472.47;4992557;28;20096;-68
2023/06/03 05:35:48;;;;;;;12.90;6.25;;;;;;;20.38;54.14;96464.19;4999376;28;20506;-68
2023/06/03 05:38:14;;;;;;;15.07;6.35;;;;;;;18.17;60.14;96460.19;4999049;28;20137;-68
2023/06/03 05:40:39;;;;;;;12.45;6.72;;;;;;;16.30;68.46;96457.16;4999803;28;20034;-67
2023/06/03 05:43:05;;;;;;;13.77;7.68;;;;;;;16.45;67.94;96463.31;4997923;28;20495;-66
2023/06/03 05:45:30;;;;;;;15.07;6.82;;;;;;;18.32;62.88;96469.81;5002776;28;20435;-67
2023/06/03 05:47:56;;;;;;;14.32;6.20;;;;;;;20.45;54.02;96465.97;5000681;28;20438;-68
2023/06/03 05:50:21;;;;;;;15.93;6.97;;;;;;;19.15;57.03;96473.03;4989715;28;20060;-67
2023/06/03 05:52:46;;;;;;;14.73;6.50;;;;;;;19.40;56.54;96478.03;5001701;28;20077;-67
2023/06/03 05:55:12;;;;;;;12.63;6.57;;;;;;;17.75;60.03;96474.31;5004337;28;20042;-68
2023/06/03 05:57:40;;;;;;;13.77;6.75;;;;;;;17.66;61.08;96482.34;4992699;28;20053;-68
2023/06/03 06:00:06;;;;;;;14.23;7.20;;;;;;;16.49;66.56;96472.34;4988037;28;20534;-68
2023/06/03 06:02:31;;;;;;;15.50;7.55;;;;;;;16.86;65.86;96470.78;4984929;28;20050;-67
2023/06/03 06:04:57;;;;;;;13.45;7.65;;;;;;;16.55;68.45;96472.69;4986448;28;20062;-68
2023/06/03 06:07:23;;;;;;;14.18;7.10;;;;;;;17.12;65.42;96479.53;4995528;28;20594;-68
2023/06/03 06:09:48;;;;;;;14.38;7.40;;;;;;;17.18;67.03;96475.91;5000418;28;20057;-67
2023/06/03 06:12:14;;;;;;;13.43;6.50;;;;;;;20.20;56.89;96477.75;4996003;28;20434;-68
2023/06/03 06:14:39;;;;;;;16.65;6.63;;;;;;;21.72;49.64;96475.16;5003820;28;20136;-67
2023/06/03 06:17:05;;;;;;;10.40;6.20;;;;;;;20.02;52.44;96475.41;4998156;28;20049;-68
2023/06/03 06:19:30;;;;;;;16.40;6.43;;;;;;;18.30;58.93;96475.00;4990756;28;20608;-68
2023/06/03 06:21:56;;;;;;;12.88;6.32;;;;;;;17.83;61.37;96488.81;5009866;28;20495;-69
2023/06/03 06:24:21;;;;;;;15.68;6.93;;;;;;;18.31;60.49;96487.66;5001360;28;20061;-67
2023/06/03 06:26:48;;;;;;;14.82;7.45;;;;;;;17.97;62.25;96490.63;5004002;28;20128;-67
2023/06/03 06:29:14;;;;;;;19.80;6.50;;;;;;;18.84;59.17;96484.34;4998359;28;20060;-65
2023/06/03 06:31:39;;;;;;;13.40;6.72;;;;;;;18.70;58.40;96486.16;5003637;28;20487;-66
2023/06/03 06:34:05;;;;;;;14.23;6.43;;;;;;;18.46;60.47;96492.97;5001128;28;20172;-67
2023/06/03 06:36:49;;;;;;;19.52;7.50;;;;;;;18.43;59.25;96491.03;5008831;28;20069;-66
2023/06/03 06:39:27;;;;;;;14.13;7.35;;;;;;;18.15;61.64;96493.88;5006003;28;20046;-65
2023/06/03 06:41:53;;;;;;;17.92;7.40;;;;;;;17.72;62.88;96488.22;5011633;28;20064;-66
2023/06/03 06:44:19;;;;;;;17.85;7.53;;;;;;;17.34;64.93;96489.16;5003939;28;20124;-65
2023/06/03 06:46:49;;;;;;;11.82;7.32;;;;;;;18.58;60.49;96497.09;5009767;28;20446;-66
2023/06/03 06:49:14;;;;;;;11.57;6.43;;;;;;;18.80;59.56;96492.72;5003626;28;20041;-67
2023/06/03 06:51:40;;;;;;;12.43;6.82;;;;;;;18.73;59.90;96498.41;5007523;28;20041;-67
2023/06/03 06:54:05;;;;;;;18.17;9.55;;;;;;;18.41;60.21;96493.44;5002311;28;20129;-66
2023/06/03 06:56:34;;;;;;;14.07;7.80;;;;;;;17.75;62.45;96492.91;5005669;28;20144;-67
2023/06/03 06:58:59;;;;;;;13.77;7.32;;;;;;;18.20;61.58;96500.13;5006130;28;20096;-66
2023/06/03 07:01:25;;;;;;;16.90;7.93;;;;;;;18.08;61.60;96505.09;5007612;28;20037;-66
2023/06/03 07:03:50;;;;;;;17.15;7.38;;;;;;;17.85;63.27;96494.75;5010001;28;20100;-66
2023/06/03 07:06:15;;;;;;;11.48;7.20;;;;;;;18.57;60.58;96496.31;5001812;28;20037;-66
2023/06/03 07:08:41;;;;;;;16.13;7.28;;;;;;;18.46;60.86;96504.06;4987851;28;20046;-66
2023/06/03 07:11:07;;;;;;;15.40;7.18;;;;;;;18.74;60.05;96508.28;5001158;28;20030;-66
2023/06/03 07:13:32;;;;;;;14.32;7.05;;;;;;;19.35;57.89;96501.53;5005490;28;20114;-68
2023/06/03 07:16:00;;;;;;;14.80;6.63;;;;;;;20.29;56.49;96491.03;5005803;28;20046;-66
2023/06/03 07:18:26;;;;;;;15.25;6.85;;;;;;;20.68;54.29;96492.81;5000282;28;20064;-67
2023/06/03 07:20:52;;;;;;;17.45;7.47;;;;;;;20.09;54.04;96489.13;5006376;28;20414;-66
2023/06/03 07:23:21;;;;;;;18.80;6.72;;;;;;;19.71;54.14;96497.94;5000672;28;20041;-67
2023/06/03 07:25:51;;;;;;;11.75;6.38;;;;;;;20.20;54.96;96500.81;5005612;28;20046;-67
2023/06/03 07:28:18;;;;;;;;;;;;;;;19.26;56.29;96496.53;5001677;28;20041;-66
2023/06/03 07:30:47;;;;;;;16.45;7.47;;;;;;;19.51;57.41;96503.56;5004422;28;19928;-68
2023/06/03 07:33:25;;;;;;;14.80;7.13;;;;;;;20.56;53.45;96497.09;4998720;28;20073;-65
2023/06/03 07:35:52;;;;;;;13.73;6.60;;;;;;;20.28;54.87;96508.97;5007258;28;20112;-66
2023/06/03 07:38:51;;;;;;;15.63;7.28;;;;;;;19.76;55.67;96502.25;4999997;28;20042;-67
2023/06/03 07:41:31;;;;;;;13.80;6.70;;;;;;;20.37;56.02;96506.34;4999821;28;20030;-66
2023/06/03 07:43:58;;;;;;;10.70;5.85;;;;;;;21.56;53.73;96506.69;5005767;28;20762;-66
2023/06/03 07:46:42;;;;;;;16.92;6.65;;;;;;;21.06;51.38;96510.91;5000198;28;20115;-67
2023/06/03 07:49:18;;;;;;;19.48;7.10;;;;;;;21.23;52.22;96512.41;4998260;28;20045;-66
2023/06/03 07:51:45;;;;;;;12.32;6.53;;;;;;;20.22;53.52;96512.25;5004173;28;20360;-67
2023/06/03 07:54:11;;;;;;;13.80;7.15;;;;;;;19.70;56.04;96515.84;4998794;28;20045;-68
2023/06/03 07:56:37;;;;;;;15.40;6.97;;;;;;;19.69;57.61;96514.28;5004043;28;20037;-65
2023/06/03 07:59:04;;;;;;;14.93;6.88;;;;;;;19.84;55.62;96512.78;5002669;28;20099;-68
2023/06/03 08:01:31;;;;;;;12.48;7.28;;;;;;;19.53;55.31;96506.69;5004245;28;20129;-66
2023/06/03 08:03:58;;;;;;;15.02;6.63;;;;;;;21.20;54.33;96511.25;5004327;28;20053;-67
2023/06/03 08:06:26;;;;;;;11.80;6.65;;;;;;;21.30;50.56;96517.75;4997879;28;20773;-67
2023/06/03 08:08:54;;;;;;;18.25;6.38;;;;;;;21.82;50.75;96509.47;5004884;28;20042;-68
2023/06/03 08:11:20;;;;;;;15.30;5.90;;;;;;;22.66;49.46;96517.50;4998543;28;20625;-67
2023/06/03 08:13:46;;;;;;;12.98;6.75;;;;;;;20.87;52.54;96509.81;5002839;28;20075;-67
2023/06/03 08:16:14;;;;;;;16.10;7.13;;;;;;;20.90;52.71;96512.50;4999801;28;20041;-65
2023/06/03 08:18:46;;;;;;;11.32;6.90;;;;;;;21.43;51.84;96515.00;5005110;28;20041;-67
2023/06/03 08:21:12;;;;;;;13.23;6.22;;;;;;;23.58;46.39;96514.63;4999170;28;20037;-66
2023/06/03 08:23:38;;;;;;;11.70;6.68;;;;;;;24.39;43.46;96515.41;5004973;28;20046;-67
2023/06/03 08:26:03;;;;;;;12.73;6.50;;;;;;;22.97;46.46;96512.03;5001916;28;20042;-68
2023/06/03 08:28:28;;;;;;;16.05;6.22;;;;;;;23.77;46.07;96519.06;5002443;28;20383;-67
2023/06/03 08:30:55;;;;;;;13.48;6.35;;;;;;;22.40;47.86;96514.81;5001789;28;20048;-67
2023/06/03 08:33:20;;;;;;;12.93;6.80;;;;;;;21.34;51.14;96514.88;4996820;28;20037;-67
2023/06/03 08:35:47;;;;;;;16.90;6.35;;;;;;;20.77;53.63;96512.44;5004101;28;20048;-67
2023/06/03 08:38:15;;;;;;;15.27;6.90;;;;;;;21.19;51.75;96520.06;4998520;28;20048;-67
2023/06/03 08:40:47;;;;;;;15.07;7.00;;;;;;;20.44;54.43;96503.38;5002268;28;20049;-67
2023/06/03 08:43:14;;;;;;;11.43;6.85;;;;;;;20.47;55.00;96510.06;4997458;28;20050;-67
2023/06/03 08:45:55;;;;;;;13.18;7.07;;;;;;;20.79;54.95;96509.22;5004648;28;20406;-67
2023/06/03 08:48:41;;;;;;;16.10;6.93;;;;;;;21.54;51.83;96507.13;4998188;28;20042;-68
2023/06/03 08:51:10;;;;;;;13.48;6.78;;;;;;;21.17;51.60;96511.38;4997320;28;20101;-66
2023/06/03 08:53:50;;;;;;;16.85;6.95;;;;;;;21.73;53.08;96510.13;5001306;28;20045;-67
2023/06/03 08:56:22;;;;;;;13.43;7.15;;;;;;;21.79;51.31;96513.13;4996462;28;20160;-67
2023/06/03 08:58:54;;;;;;;13.82;7.38;;;;;;;22.25;49.40;96520.03;5002362;28;20041;-66
2023/06/03 09:01:26;;;;;;;11.35;6.60;;;;;;;23.35;46.67;96519.44;4997735;28;20120;-68
2023/06/03 09:03:53;;;;;;;16.15;7.15;;;;;;;22.06;50.07;96516.28;5002496;28;20107;-66
2023/06/03 09:06:20;;;;;;;14.50;6.82;;;;;;;21.15;52.43;96511.03;4995444;28;20038;-68
2023/06/03 09:08:50;;;;;;;14.02;6.93;;;;;;;20.94;51.94;96510.41;5003339;28;20038;-68
2023/06/03 09:11:17;;;;;;;13.27;7.03;;;;;;;21.02;52.72;96507.44;4996709;28;20034;-67
2023/06/03 09:13:44;;;;;;;13.27;6.72;;;;;;;20.35;55.13;96506.78;5004484;28;20034;-66
2023/06/03 09:16:10;;;;;;;16.92;7.78;;;;;;;20.52;53.95;96512.31;5004334;28;20192;-67
2023/06/03 09:18:36;;;;;;;16.08;6.82;;;;;;;20.99;54.24;96507.09;5009163;28;20064;-66
2023/06/03 09:21:03;;;;;;;11.35;6.97;;;;;;;21.19;52.67;96511.69;5002508;28;20038;-66
2023/06/03 09:23:30;;;;;;;11.18;7.25;;;;;;;21.57;52.95;96511.00;4998273;28;20049;-67
2023/06/03 09:25:55;;;;;;;12.32;6.45;;;;;;;21.46;51.42;96504.97;5003770;28;20050;-67
2023/06/03 09:28:21;;;;;;;17.52;8.35;;;;;;;20.44;52.86;96509.72;4998854;28;20147;-66
2023/06/03 09:30:46;;;;;;;14.10;7.10;;;;;;;21.57;50.82;96502.66;5003328;28;20042;-68
2023/06/03 09:33:12;;;;;;;17.65;7.88;;;;;;;22.11;51.30;96512.94;4998556;28;20038;-68
2023/06/03 09:35:37;;;;;;;15.25;7.30;;;;;;;22.71;48.97;96509.34;5004183;28;20045;-66
2023/06/03 09:38:06;;;;;;;13.35;6.97;;;;;;;21.71;50.56;96509.81;5002056;28;20070;-67
2023/06/03 09:40:33;;;;;;;14.85;7.18;;;;;;;21.73;51.47;96516.50;5004160;28;20046;-69
2023/06/03 09:42:59;;;;;;;13.90;6.90;;;;;;;21.57;52.09;96505.44;5002793;28;20038;-67
2023/06/03 09:45:32;;;;;;;14.60;7.40;;;;;;;22.11;50.70;96506.53;5000466;28;20041;-72
2023/06/03 09:47:59;;;;;;;17.98;7.60;;;;;;;23.47;48.32;96499.03;5003899;28;20077;-67
2023/06/03 09:50:27;;;;;;;16.77;9.70;;;;;;;22.07;50.87;96492.72;4997880;28;20318;-68
2023/06/03 09:52:53;;;;;;;15.70;7.30;;;;;;;22.20;50.52;96500.28;5000667;28;20490;-67
2023/06/03 09:55:19;;;;;;;14.73;7.43;;;;;;;22.09;51.11;96495.88;4997475;28;20038;-68
2023/06/03 09:58:08;;;;;;;14.57;7.07;;;;;;;22.67;48.59;96494.75;5000785;28;20049;-67
2023/06/03 10:00:51;;;;;;;11.10;6.57;;;;;;;23.69;47.01;96486.25;5001939;28;20065;-66
2023/06/03 10:03:20;;;;;;;16.17;7.25;;;;;;;22.79;48.32;96487.53;4992652;28;20046;-67
2023/06/03 10:05:46;;;;;;;13.18;7.07;;;;;;;23.43;46.86;96487.22;5002164;28;20048;-66
2023/06/03 10:08:11;;;;;;;15.15;7.55;;;;;;;22.93;49.66;96491.06;4996632;28;20042;-66
2023/06/03 10:10:55;;;;;;;13.18;7.05;;;;;;;22.41;49.65;96484.88;5001932;28;20482;-67
2023/06/03 10:13:21;;;;;;;18.40;7.05;;;;;;;22.76;50.29;96476.47;4998740;28;20045;-67
2023/06/03 10:15:49;;;;;;;11.10;6.65;;;;;;;24.20;47.29;96483.81;5001998;28;20711;-66
2023/06/03 10:18:14;;;;;;;11.60;6.97;;;;;;;25.35;43.79;96478.88;4997298;28;20041;-67
2023/06/03 10:20:41;;;;;;;9.55;6.10;;;;;;;25.67;43.36;96475.81;5002895;28;20049;-67
2023/06/03 10:23:09;;;;;;;10.63;6.97;;;;;;;25.43;43.10;96468.09;4998419;28;20068;-67
2023/06/03 10:25:43;;;;;;;12.05;6.60;;;;;;;24.53;45.36;96463.66;5000275;28;20033;-67
2023/06/03 10:28:13;;;;;;;20.23;7.50;;;;;;;23.28;47.19;96470.22;4997363;28;20049;-68
2023/06/03 10:30:42;;;;;;;9.93;6.72;;;;;;;23.85;46.93;96472.03;5001583;28;20046;-69
2023/06/03 10:33:10;;;;;;;11.40;6.35;;;;;;;24.48;45.83;96469.84;4996838;28;20052;-67
2023/06/03 10:35:38;;;;;;;21.10;6.10;;;;;;;24.36;45.07;96463.16;5002051;28;20045;-67
2023/06/03 10:38:05;;;;;;;12.25;6.65;;;;;;;23.47;47.11;96461.91;5000327;28;20038;-68
2023/06/03 10:40:31;;;;;;;16.63;7.13;;;;;;;24.52;44.88;96459.28;5003791;28;20041;-68
2023/06/03 10:42:57;;;;;;;10.43;5.75;;;;;;;24.28;46.65;96453.50;5001754;28;20046;-68
2023/06/03 10:45:23;;;;;;;13.07;6.63;;;;;;;24.05;46.40;96460.44;4998608;28;20127;-68
2023/06/03 10:47:52;;;;;;;11.93;6.25;;;;;;;25.08;45.49;96462.06;5011043;28;20042;-66
2023/06/03 10:50:23;;;;;;;13.48;6.32;;;;;;;24.14;44.73;96456.91;5007177;28;20048;-67
2023/06/03 10:53:07;;;;;;;12.98;6.82;;;;;;;24.16;44.99;96460.00;5006635;28;20517;-67
2023/06/03 10:55:43;;;;;;;10.85;6.38;;;;;;;23.98;43.50;96461.50;5001900;28;20475;-67
2023/06/03 10:58:18;;;;;;;10.57;6.55;;;;;;;23.46;44.48;96452.78;4997187;28;20100;-68
2023/06/03 11:01:04;;;;;;;12.50;6.25;;;;;;;23.51;44.73;96445.78;5001806;28;20053;-67
2023/06/03 11:03:34;;;;;;;16.75;6.72;;;;;;;23.65;46.70;96447.25;5001412;28;20050;-68
2023/06/03 11:06:18;;;;;;;11.73;6.57;;;;;;;24.26;45.02;96444.03;5001874;28;20442;-68
2023/06/03 11:09:05;;;;;;;14.35;6.30;;;;;;;24.14;44.36;96448.50;5002099;28;20038;-67
2023/06/03 11:11:40;;;;;;;13.65;5.97;;;;;;;24.17;43.52;96444.78;5000827;28;20103;-68
2023/06/03 11:14:06;;;;;;;12.48;6.03;;;;;;;24.26;43.81;96432.84;4996018;28;20050;-68
2023/06/03 11:16:56;;;;;;;11.05;6.22;;;;;;;24.12;44.38;96434.22;5000638;28;20038;-67
2023/06/03 11:19:40;;;;;;;12.05;5.97;;;;;;;24.27;42.54;96437.94;4996800;28;20399;-67
2023/06/03 11:22:08;;;;;;;13.57;6.20;;;;;;;25.25;41.41;96435.31;5000086;28;20073;-67
2023/06/03 11:24:40;;;;;;;8.65;5.20;;;;;;;24.66;39.60;96441.13;5003879;28;20038;-67
2023/06/03 11:27:14;;;;;;;10.05;6.00;;;;;;;25.30;40.57;96433.88;5001834;28;20082;-67
2023/06/03 11:29:45;;;;;;;14.13;5.40;;;;;;;24.99;40.28;96434.84;5004908;28;20056;-67
2023/06/03 11:32:24;;;;;;;13.38;5.53;;;;;;;24.39;40.88;96434.22;4999689;28;20049;-69